createdAt,value
2024-03-05T00:02:18.506Z,25.90
2024-03-05T00:04:46.559Z,27.70
2024-03-05T00:07:16.223Z,27.60
2024-03-05T00:09:42.966Z,26.80
2024-03-05T00:12:12.317Z,27.00
2024-03-05T00:14:39.077Z,25.20
2024-03-05T00:17:05.777Z,25.60
2024-03-05T00:19:32.491Z,26.40
2024-03-05T00:21:59.303Z,27.30
2024-03-05T00:24:26.030Z,28.60
2024-03-05T00:26:53.245Z,29.40
2024-03-05T00:29:19.908Z,25.80
2024-03-05T00:31:47.486Z,27.00
2024-03-05T00:34:15.136Z,26.10
2024-03-05T00:36:41.880Z,28.70
2024-03-05T00:39:08.692Z,28.10
2024-03-05T00:41:50.522Z,26.80
2024-03-05T00:44:17.536Z,26.80
2024-03-05T00:46:44.248Z,27.60
2024-03-05T00:49:13.729Z,27.80
2024-03-05T00:51:40.859Z,27.60
2024-03-05T00:54:08.565Z,29.80
2024-03-05T00:56:35.507Z,28.70
2024-03-05T00:59:02.201Z,27.40
2024-03-05T01:01:29.168Z,27.60
2024-03-05T01:03:56.019Z,28.30
2024-03-05T01:06:22.578Z,27.70
2024-03-05T01:08:49.228Z,28.50
2024-03-05T01:11:16.016Z,28.30
2024-03-05T01:13:42.831Z,28.30
2024-03-05T01:16:10.013Z,27.30
2024-03-05T01:18:37.395Z,29.10
2024-03-05T01:21:06.544Z,27.30
2024-03-05T01:23:33.658Z,29.10
2024-03-05T01:26:00.775Z,26.60
2024-03-05T01:28:28.706Z,25.40
2024-03-05T01:30:55.544Z,25.90
2024-03-05T01:33:23.375Z,25.90
2024-03-05T01:35:51.767Z,24.50
2024-03-05T01:38:18.460Z,26.50
2024-03-05T01:40:45.695Z,28.10
2024-03-05T01:43:12.647Z,27.40
2024-03-05T01:45:39.447Z,25.70
2024-03-05T01:48:06.335Z,24.30
2024-03-05T01:50:37.488Z,24.20
2024-03-05T01:53:07.468Z,23.90
2024-03-05T01:55:36.192Z,24.40
2024-03-05T01:58:04.433Z,22.90
2024-03-05T02:00:31.838Z,21.50
2024-03-05T02:02:59.052Z,23.10
2024-03-05T02:05:26.109Z,24.30
2024-03-05T02:07:55.881Z,22.90
2024-03-05T02:10:22.642Z,23.30
2024-03-05T02:12:49.309Z,24.80
2024-03-05T02:15:16.388Z,22.30
2024-03-05T02:17:48.901Z,21.70
2024-03-05T02:20:15.578Z,24.40
2024-03-05T02:22:42.884Z,23.90
2024-03-05T02:25:10.555Z,23.80
2024-03-05T02:27:42.030Z,26.10
2024-03-05T02:32:41.552Z,25.30
2024-03-05T02:35:11.814Z,26.40
2024-03-05T02:37:39.450Z,25.10
2024-03-05T02:40:11.325Z,27.60
2024-03-05T02:42:38.116Z,28.50
2024-03-05T02:45:05.578Z,25.50
2024-03-05T02:47:35.133Z,27.50
2024-03-05T02:50:04.144Z,27.70
2024-03-05T02:52:31.686Z,27.00
2024-03-05T02:54:58.682Z,26.20
2024-03-05T02:57:25.448Z,25.90
2024-03-05T02:59:52.329Z,26.20
2024-03-05T03:02:20.869Z,24.00
2024-03-05T03:04:48.185Z,23.90
2024-03-05T03:07:14.894Z,22.30
2024-03-05T03:09:45.854Z,21.50
2024-03-05T03:12:14.445Z,23.20
2024-03-05T03:14:44.550Z,23.90
2024-03-05T03:17:11.737Z,22.70
2024-03-05T03:19:38.511Z,22.50
2024-03-05T03:22:05.332Z,20.60
2024-03-05T03:24:32.055Z,22.30
2024-03-05T03:26:58.829Z,20.30
2024-03-05T03:29:27.102Z,20.40
2024-03-05T03:31:55.921Z,20.80
2024-03-05T03:34:23.149Z,20.90
2024-03-05T03:36:49.882Z,20.10
2024-03-05T03:39:23.767Z,19.40
2024-03-05T03:41:56.687Z,19.90
2024-03-05T03:44:23.476Z,19.90
2024-03-05T03:46:51.012Z,19.00
2024-03-05T03:49:26.451Z,17.50
2024-03-05T03:51:54.080Z,18.00
2024-03-05T03:54:22.013Z,18.60
2024-03-05T03:56:49.192Z,17.80
2024-03-05T03:59:15.905Z,16.30
2024-03-05T04:01:47.070Z,15.90
2024-03-05T04:04:14.402Z,17.00
2024-03-05T04:06:46.292Z,15.60
2024-03-05T04:09:14.529Z,16.90
2024-03-05T04:11:42.085Z,15.20
2024-03-05T04:14:09.285Z,16.20
2024-03-05T04:16:40.137Z,15.60
2024-03-05T04:19:10.104Z,15.00
2024-03-05T04:21:41.646Z,14.70
2024-03-05T04:24:13.562Z,14.70
2024-03-05T04:26:41.775Z,14.10
2024-03-05T04:29:09.994Z,12.50
2024-03-05T04:31:44.648Z,12.30
2024-03-05T04:34:19.649Z,14.00
2024-03-05T04:36:46.305Z,15.70
2024-03-05T04:39:15.874Z,17.20
2024-03-05T04:41:45.691Z,17.30
2024-03-05T04:44:14.244Z,16.70
2024-03-05T04:46:41.449Z,15.60
2024-03-05T04:49:08.278Z,15.30
2024-03-05T04:51:35.509Z,15.60
2024-03-05T04:54:02.625Z,15.40
2024-03-05T04:56:29.235Z,15.40
2024-03-05T04:58:55.940Z,16.10
2024-03-05T05:01:22.881Z,16.50
2024-03-05T05:03:49.712Z,15.90
2024-03-05T05:06:16.476Z,15.90
2024-03-05T05:08:43.367Z,15.10
2024-03-05T05:11:10.245Z,15.30
2024-03-05T05:13:37.111Z,14.90
2024-03-05T05:16:05.647Z,14.10
2024-03-05T05:18:32.230Z,14.10
2024-03-05T05:20:58.887Z,14.00
2024-03-05T05:23:25.566Z,14.40
2024-03-05T05:25:53.412Z,12.80
2024-03-05T05:28:20.135Z,11.40
2024-03-05T05:30:46.841Z,12.10
2024-03-05T05:33:13.755Z,11.00
2024-03-05T05:35:40.635Z,10.60
2024-03-05T05:38:10.942Z,11.90
2024-03-05T05:40:37.561Z,9.90
2024-03-05T05:43:04.623Z,11.20
2024-03-05T05:45:31.583Z,9.90
2024-03-05T05:47:58.645Z,9.00
2024-03-05T05:50:34.693Z,9.80
2024-03-05T05:53:01.788Z,9.50
2024-03-05T05:55:29.193Z,9.30
2024-03-05T05:57:58.875Z,9.00
2024-03-05T06:00:39.850Z,9.20
2024-03-05T06:03:08.815Z,8.60
2024-03-05T06:05:38.872Z,8.80
2024-03-05T06:08:16.061Z,9.80
2024-03-05T06:10:43.803Z,9.70
2024-03-05T06:13:12.142Z,14.60
2024-03-05T06:15:39.530Z,14.30
2024-03-05T06:18:06.670Z,13.80
2024-03-05T06:20:33.515Z,11.20
2024-03-05T06:23:01.399Z,11.20
2024-03-05T06:25:28.391Z,10.60
2024-03-05T06:27:55.444Z,9.10
2024-03-05T06:30:23.328Z,10.20
2024-03-05T06:32:51.890Z,8.60
2024-03-05T06:35:22.965Z,13.40
2024-03-05T06:37:50.733Z,8.80
2024-03-05T06:40:23.627Z,8.50
2024-03-05T06:42:53.809Z,8.60
2024-03-05T06:45:28.165Z,8.80
2024-03-05T06:50:42.806Z,8.10
2024-03-05T06:53:29.671Z,9.20
2024-03-05T06:56:16.201Z,8.60
2024-03-05T06:58:45.210Z,8.60
2024-03-05T07:01:13.975Z,8.60
2024-03-05T07:03:42.795Z,8.00
2024-03-05T07:06:15.817Z,8.70
2024-03-05T07:08:44.921Z,8.10
2024-03-05T07:11:13.699Z,9.60
2024-03-05T07:13:44.953Z,8.60
2024-03-05T07:16:16.517Z,8.10
2024-03-05T07:18:44.634Z,7.50
2024-03-05T07:21:11.813Z,8.10
2024-03-05T07:23:40.286Z,19.00
2024-03-05T07:26:07.823Z,15.30
2024-03-05T07:28:34.755Z,12.90
2024-03-05T07:31:02.462Z,9.10
2024-03-05T07:33:29.875Z,21.60
2024-03-05T07:35:57.365Z,51.70
2024-03-05T07:38:24.193Z,17.10
2024-03-05T07:40:51.902Z,9.90
2024-03-05T07:43:18.745Z,24.00
2024-03-05T07:45:48.091Z,11.80
2024-03-05T07:48:16.606Z,10.60
2024-03-05T07:50:44.706Z,9.40
2024-03-05T07:53:11.552Z,29.80
2024-03-05T07:55:46.154Z,34.90
2024-03-05T07:58:14.261Z,21.30
2024-03-05T08:00:41.312Z,27.30
2024-03-05T08:03:08.293Z,24.80
2024-03-05T08:05:35.318Z,16.90
2024-03-05T08:08:02.487Z,16.60
2024-03-05T08:10:29.662Z,15.60
2024-03-05T08:12:57.466Z,10.80
2024-03-05T08:15:25.322Z,13.10
2024-03-05T08:17:53.653Z,28.70
2024-03-05T08:20:24.568Z,52.10
2024-03-05T08:22:51.610Z,171.00
2024-03-05T08:25:19.671Z,148.00
2024-03-05T08:27:48.132Z,27.90
2024-03-05T08:30:18.073Z,43.70
2024-03-05T08:32:45.074Z,49.70
2024-03-05T08:35:12.369Z,19.30
2024-03-05T08:37:41.266Z,17.60
2024-03-05T08:40:16.311Z,16.40
2024-03-05T08:42:44.711Z,17.40
2024-03-05T08:45:13.149Z,12.70
2024-03-05T08:47:43.327Z,18.50
2024-03-05T08:50:11.786Z,40.30
2024-03-05T08:52:39.255Z,16.20
2024-03-05T08:55:08.725Z,14.30
2024-03-05T08:57:37.768Z,23.70
2024-03-05T09:00:16.306Z,24.00
2024-03-05T09:02:55.724Z,12.40
2024-03-05T09:05:22.395Z,12.00
2024-03-05T09:07:50.439Z,11.50
2024-03-05T09:10:18.295Z,11.90
2024-03-05T09:12:45.132Z,12.40
2024-03-05T09:15:12.873Z,12.00
2024-03-05T09:17:39.588Z,11.60
2024-03-05T09:20:18.746Z,11.20
2024-03-05T09:22:46.882Z,14.00
2024-03-05T09:25:16.670Z,13.00
2024-03-05T09:27:45.385Z,13.40
2024-03-05T09:30:15.529Z,17.60
2024-03-05T09:32:42.670Z,21.30
2024-03-05T09:35:10.439Z,25.00
2024-03-05T09:37:37.681Z,29.90
2024-03-05T09:40:17.280Z,36.90
2024-03-05T09:42:44.455Z,45.30
2024-03-05T09:45:15.613Z,41.50
2024-03-05T09:47:43.352Z,30.40
2024-03-05T09:50:12.862Z,23.40
2024-03-05T09:52:39.992Z,19.20
2024-03-05T09:55:07.690Z,15.30
2024-03-05T09:57:35.628Z,17.90
2024-03-05T10:00:04.697Z,19.00
2024-03-05T10:02:39.839Z,21.90
2024-03-05T10:05:11.086Z,24.00
2024-03-05T10:07:38.432Z,25.00
2024-03-05T10:10:12.012Z,25.80
2024-03-05T10:12:40.207Z,33.20
2024-03-05T10:15:17.826Z,31.40
2024-03-05T10:17:45.766Z,35.50
2024-03-05T10:20:25.780Z,28.70
2024-03-05T10:22:54.116Z,26.70
2024-03-05T10:25:23.269Z,26.50
2024-03-05T10:27:51.462Z,24.60
2024-03-05T10:30:38.070Z,23.40
2024-03-05T10:33:10.405Z,21.90
2024-03-05T10:35:38.582Z,24.90
2024-03-05T10:38:08.844Z,22.90
2024-03-05T10:40:36.866Z,39.80
2024-03-05T10:43:05.918Z,56.00
2024-03-05T10:45:40.637Z,38.90
2024-03-05T10:48:08.341Z,32.70
2024-03-05T10:50:40.265Z,22.70
2024-03-05T10:53:10.919Z,27.50
2024-03-05T10:55:39.243Z,47.70
2024-03-05T10:58:12.044Z,87.00
2024-03-05T11:00:40.057Z,33.10
2024-03-05T11:03:11.692Z,41.00
2024-03-05T11:05:48.031Z,30.50
2024-03-05T11:08:18.595Z,88.10
2024-03-05T11:10:51.943Z,124.90
2024-03-05T11:13:20.421Z,114.30
2024-03-05T11:15:49.772Z,77.60
2024-03-05T11:18:31.987Z,33.80
2024-03-05T11:21:13.240Z,22.70
2024-03-05T11:23:54.737Z,35.50
2024-03-05T11:26:22.987Z,37.30
2024-03-05T11:28:55.933Z,29.90
2024-03-05T11:31:28.229Z,38.60
2024-03-05T11:34:04.370Z,17.90
2024-03-05T11:36:37.056Z,48.80
2024-03-05T11:39:08.880Z,28.00
2024-03-05T11:41:43.564Z,45.20
2024-03-05T11:44:41.895Z,22.20
2024-03-05T11:47:08.753Z,39.70
2024-03-05T11:49:37.355Z,46.10
2024-03-05T11:52:05.090Z,30.60
2024-03-05T11:54:36.354Z,39.20
2024-03-05T11:57:04.202Z,55.10
2024-03-05T11:59:50.883Z,44.50
2024-03-05T12:02:17.900Z,37.90
2024-03-05T12:04:48.199Z,41.50
2024-03-05T12:07:15.221Z,26.90
2024-03-05T12:09:42.263Z,31.80
2024-03-05T12:12:11.551Z,24.50
2024-03-05T12:14:55.382Z,26.60
2024-03-05T12:17:24.636Z,24.10
2024-03-05T12:19:59.901Z,30.20
2024-03-05T12:22:27.046Z,21.60
2024-03-05T12:24:53.997Z,25.40
2024-03-05T12:27:21.420Z,19.30
2024-03-05T12:29:48.458Z,21.40
2024-03-05T12:32:18.979Z,18.20
2024-03-05T12:34:48.530Z,19.80
2024-03-05T12:37:16.892Z,21.50
2024-03-05T12:39:43.589Z,20.20
2024-03-05T12:42:14.001Z,31.40
2024-03-05T12:44:41.194Z,35.60
2024-03-05T12:47:13.320Z,27.40
2024-03-05T12:49:47.307Z,34.60
2024-03-05T12:52:19.814Z,20.20
2024-03-05T12:54:47.777Z,25.80
2024-03-05T12:57:29.003Z,22.90
2024-03-05T13:00:06.764Z,27.80
2024-03-05T13:02:33.809Z,24.80
2024-03-05T13:05:01.555Z,17.70
2024-03-05T13:07:28.953Z,19.70
2024-03-05T13:09:55.722Z,24.40
2024-03-05T13:12:24.033Z,22.10
2024-03-05T13:14:51.113Z,17.30
2024-03-05T13:17:18.574Z,17.80
2024-03-05T13:19:45.797Z,21.00
2024-03-05T13:22:12.634Z,24.20
2024-03-05T13:24:39.963Z,18.60
2024-03-05T13:27:07.707Z,17.30
2024-03-05T13:29:36.249Z,29.60
2024-03-05T13:32:03.385Z,17.00
2024-03-05T13:34:30.454Z,20.50
2024-03-05T13:36:58.046Z,18.30
2024-03-05T13:39:24.918Z,17.60
2024-03-05T13:41:55.383Z,18.10
2024-03-05T13:44:22.840Z,28.40
2024-03-05T13:46:50.856Z,25.00
2024-03-05T13:49:20.156Z,20.10
2024-03-05T13:51:47.398Z,25.40
2024-03-05T13:54:14.307Z,22.30
2024-03-05T13:56:43.311Z,22.70
2024-03-05T13:59:14.148Z,28.80
2024-03-05T14:01:43.927Z,28.20
2024-03-05T14:04:11.280Z,20.50
2024-03-05T14:06:41.600Z,24.30
2024-03-05T14:09:11.693Z,23.00
2024-03-05T14:11:41.678Z,26.60
2024-03-05T14:14:09.614Z,22.80
2024-03-05T14:16:39.063Z,27.70
2024-03-05T14:19:06.378Z,31.10
2024-03-05T14:21:36.369Z,30.70
2024-03-05T14:24:03.717Z,33.80
2024-03-05T14:26:31.523Z,36.90
2024-03-05T14:28:58.832Z,38.70
2024-03-05T14:31:25.792Z,32.00
2024-03-05T14:33:52.839Z,42.50
2024-03-05T14:36:21.809Z,38.90
2024-03-05T14:38:49.414Z,42.90
2024-03-05T14:41:17.361Z,39.00
2024-03-05T14:43:46.484Z,42.10
2024-03-05T14:46:13.841Z,35.70
2024-03-05T14:48:42.516Z,31.80
2024-03-05T14:51:11.816Z,53.90
2024-03-05T14:53:39.562Z,58.50
2024-03-05T14:56:07.400Z,64.50
2024-03-05T14:58:34.338Z,49.60
2024-03-05T15:01:01.550Z,48.00
2024-03-05T15:03:28.822Z,61.00
2024-03-05T15:05:57.336Z,54.40
2024-03-05T15:08:24.342Z,86.80
2024-03-05T15:10:51.252Z,81.90
2024-03-05T15:13:18.294Z,36.00
2024-03-05T15:15:45.656Z,31.50
2024-03-05T15:18:15.122Z,27.90
2024-03-05T15:20:42.269Z,22.70
2024-03-05T15:23:11.141Z,23.00
2024-03-05T15:25:38.022Z,20.20
2024-03-05T15:28:07.862Z,23.90
2024-03-05T15:30:35.905Z,50.10
2024-03-05T15:33:04.475Z,53.60
2024-03-05T15:35:31.690Z,36.00
2024-03-05T15:37:59.175Z,36.70
2024-03-05T15:40:27.095Z,32.40
2024-03-05T15:42:58.777Z,27.90
2024-03-05T15:45:28.711Z,22.00
2024-03-05T15:47:56.712Z,24.80
2024-03-05T15:50:25.339Z,56.90
2024-03-05T15:52:57.585Z,43.30
2024-03-05T15:55:28.399Z,67.40
2024-03-05T15:58:03.322Z,51.50
2024-03-05T16:00:36.759Z,68.60
2024-03-05T16:03:06.485Z,66.10
2024-03-05T16:05:43.569Z,62.60
2024-03-05T16:08:21.310Z,56.70
2024-03-05T16:10:49.588Z,44.60
2024-03-05T16:13:16.951Z,33.80
2024-03-05T16:15:46.981Z,42.20
2024-03-05T16:18:15.191Z,42.40
2024-03-05T16:20:42.560Z,50.80
2024-03-05T16:23:09.863Z,51.30
2024-03-05T16:25:41.721Z,55.20
2024-03-05T16:28:10.095Z,58.70
2024-03-05T16:30:38.317Z,66.10
2024-03-05T16:33:08.772Z,102.30
2024-03-05T16:35:44.922Z,119.70
2024-03-05T16:38:14.727Z,88.80
2024-03-05T16:40:42.614Z,64.00
2024-03-05T16:43:10.132Z,104.70
2024-03-05T16:45:37.563Z,72.50
2024-03-05T16:48:09.036Z,62.60
2024-03-05T16:50:36.702Z,50.40
2024-03-05T16:53:06.427Z,65.10
2024-03-05T16:55:33.532Z,59.40
2024-03-05T16:58:01.115Z,59.10
2024-03-05T17:00:31.301Z,84.50
2024-03-05T17:03:08.195Z,60.80
2024-03-05T17:05:37.776Z,73.10
2024-03-05T17:08:07.116Z,55.70
2024-03-05T17:10:34.746Z,46.30
2024-03-05T17:13:04.725Z,60.30
2024-03-05T17:15:39.134Z,66.40
2024-03-05T17:18:07.606Z,54.00
2024-03-05T17:20:34.952Z,78.10
2024-03-05T17:23:06.763Z,102.50
2024-03-05T17:25:38.701Z,140.60
2024-03-05T17:28:09.042Z,134.10
2024-03-05T17:30:38.419Z,112.70
2024-03-05T17:33:11.705Z,144.30
2024-03-05T17:35:41.055Z,99.50
2024-03-05T17:38:10.358Z,88.50
2024-03-05T17:40:37.415Z,103.60
2024-03-05T17:43:04.554Z,64.20
2024-03-05T17:45:32.388Z,50.90
2024-03-05T17:48:05.309Z,48.20
2024-03-05T17:50:37.528Z,48.50
2024-03-05T17:53:05.123Z,47.70
2024-03-05T17:55:32.468Z,42.40
2024-03-05T17:57:59.389Z,36.90
2024-03-05T18:00:26.545Z,37.70
2024-03-05T18:02:55.379Z,34.30
2024-03-05T18:05:30.241Z,36.60
2024-03-05T18:07:57.161Z,47.10
2024-03-05T18:10:25.159Z,43.80
2024-03-05T18:12:53.285Z,32.20
2024-03-05T18:15:21.649Z,33.80
2024-03-05T18:17:51.219Z,30.60
2024-03-05T18:20:21.811Z,29.80
2024-03-05T18:22:49.918Z,32.30
2024-03-05T18:25:18.461Z,35.20
2024-03-05T18:27:54.981Z,37.50
2024-03-05T18:30:25.413Z,32.70
2024-03-05T18:32:53.493Z,32.00
2024-03-05T18:35:26.761Z,32.40
2024-03-05T18:37:55.344Z,29.40
2024-03-05T18:40:23.486Z,30.90
2024-03-05T18:42:52.316Z,32.00
2024-03-05T18:45:20.777Z,29.50
2024-03-05T18:47:59.137Z,31.00
2024-03-05T18:50:32.389Z,29.40
2024-03-05T18:53:00.634Z,30.00
2024-03-05T18:55:30.118Z,30.30
2024-03-05T18:57:57.224Z,33.30
2024-03-05T19:00:24.208Z,31.10
2024-03-05T19:02:54.342Z,31.20
2024-03-05T19:05:22.528Z,32.30
2024-03-05T19:07:50.517Z,30.20
2024-03-05T19:10:19.336Z,33.80
2024-03-05T19:12:47.515Z,34.60
2024-03-05T19:15:17.704Z,35.60
2024-03-05T19:17:47.850Z,35.80
2024-03-05T19:20:16.542Z,37.30
2024-03-05T19:22:43.664Z,35.10
2024-03-05T19:25:13.630Z,35.40
2024-03-05T19:27:41.647Z,37.10
2024-03-05T19:30:10.933Z,38.30
2024-03-05T19:32:42.183Z,36.70
2024-03-05T19:35:11.273Z,37.90
2024-03-05T19:37:41.748Z,39.00
2024-03-05T19:40:16.005Z,37.70
2024-03-05T19:42:44.845Z,39.90
2024-03-05T19:45:12.326Z,38.70
2024-03-05T19:47:39.408Z,43.10
2024-03-05T19:50:07.239Z,41.20
2024-03-05T19:52:38.947Z,41.60
2024-03-05T19:55:07.429Z,38.70
2024-03-05T19:57:34.479Z,41.70
2024-03-05T20:00:03.257Z,41.10
2024-03-05T20:02:39.796Z,41.60
2024-03-05T20:05:07.208Z,42.30
2024-03-05T20:07:34.559Z,42.10
2024-03-05T20:10:02.240Z,46.90
2024-03-05T20:12:29.878Z,43.50
2024-03-05T20:14:56.703Z,46.40
2024-03-05T20:17:25.549Z,51.10
2024-03-05T20:19:54.438Z,77.10
2024-03-05T20:22:24.917Z,78.30
2024-03-05T20:24:58.730Z,79.60
2024-03-05T20:27:27.738Z,63.80
2024-03-05T20:29:57.834Z,60.40
2024-03-05T20:32:31.056Z,62.60
2024-03-05T20:34:59.767Z,59.60
2024-03-05T20:37:27.172Z,72.30
2024-03-05T20:39:56.742Z,84.00
2024-03-05T20:42:23.580Z,73.30
2024-03-05T20:44:50.490Z,77.20
2024-03-05T20:47:17.748Z,77.70
2024-03-05T20:49:46.193Z,71.40
2024-03-05T20:52:13.525Z,69.40
2024-03-05T20:54:40.703Z,90.40
2024-03-05T20:57:07.867Z,75.60
2024-03-05T20:59:34.928Z,80.70
2024-03-05T21:02:10.569Z,80.10
2024-03-05T21:04:39.573Z,89.40
2024-03-05T21:07:37.339Z,78.30
2024-03-05T21:13:48.987Z,77.70
2024-03-05T21:16:15.941Z,81.50
2024-03-05T21:18:42.795Z,81.70
2024-03-05T21:21:14.164Z,83.70
2024-03-05T21:23:42.054Z,102.20
2024-03-05T21:26:20.407Z,113.50
2024-03-05T21:28:55.634Z,105.20
2024-03-05T21:31:22.444Z,95.00
2024-03-05T21:33:49.993Z,89.80
2024-03-05T21:36:17.422Z,84.30
2024-03-05T21:38:45.517Z,73.00
2024-03-05T21:41:13.141Z,71.00
2024-03-05T21:43:40.234Z,66.60
2024-03-05T21:46:06.951Z,68.90
2024-03-05T21:48:34.558Z,66.30
2024-03-05T21:51:06.732Z,65.20
2024-03-05T21:53:39.851Z,67.80
2024-03-05T21:56:07.129Z,65.70
2024-03-05T21:58:34.246Z,63.10
2024-03-05T22:01:02.247Z,57.90
2024-03-05T22:03:29.733Z,63.60
2024-03-05T22:06:02.097Z,74.20
2024-03-05T22:08:32.486Z,105.00
2024-03-05T22:10:59.309Z,110.20
2024-03-05T22:13:28.470Z,93.30
2024-03-05T22:15:55.769Z,80.20
2024-03-05T22:18:22.480Z,74.30
2024-03-05T22:20:51.000Z,71.60
2024-03-05T22:23:17.724Z,66.10
2024-03-05T22:25:46.443Z,61.60
2024-03-05T22:28:15.207Z,62.20
2024-03-05T22:30:43.020Z,57.60
2024-03-05T22:33:11.250Z,60.80
2024-03-05T22:35:38.669Z,59.20
2024-03-05T22:38:05.974Z,58.90
2024-03-05T22:40:32.547Z,60.40
2024-03-05T22:42:59.313Z,58.60
2024-03-05T22:45:28.257Z,55.60
2024-03-05T22:47:54.964Z,57.00
2024-03-05T22:50:21.926Z,60.20
2024-03-05T22:52:51.391Z,56.90
2024-03-05T22:55:18.115Z,58.40
2024-03-05T22:57:44.758Z,55.90
2024-03-05T23:00:25.423Z,59.10
2024-03-05T23:02:52.973Z,58.90
2024-03-05T23:05:20.487Z,59.40
2024-03-05T23:07:48.813Z,60.90
2024-03-05T23:10:16.949Z,57.40
2024-03-05T23:12:45.044Z,59.50
2024-03-05T23:15:16.099Z,57.80
2024-03-05T23:17:43.937Z,56.10
2024-03-05T23:20:11.911Z,59.60
2024-03-05T23:22:39.528Z,59.50
2024-03-05T23:25:10.727Z,56.70
2024-03-05T23:27:37.654Z,61.40
2024-03-05T23:30:04.795Z,61.00
2024-03-05T23:32:32.448Z,60.10
2024-03-05T23:34:59.886Z,60.20
2024-03-05T23:37:26.766Z,57.20
2024-03-05T23:39:54.332Z,58.40
2024-03-05T23:42:21.131Z,58.90
2024-03-05T23:44:47.930Z,58.80
2024-03-05T23:47:15.024Z,58.10
2024-03-05T23:49:41.785Z,58.00
2024-03-05T23:52:09.354Z,61.60
2024-03-05T23:54:36.075Z,58.10
2024-03-05T23:57:03.251Z,57.30
2024-03-05T23:59:29.857Z,54.40
